Time;durP1;ratioP1;P1;durP2;ratioP2;P2;SDS_P1;SDS_P2;PMS_P1;PMS_P2;Temp;Humidity;BMP_temperature;BMP_pressure;BME280_temperature;BME280_humidity;BME280_pressure;Samples;Min_cycle;Max_cycle;Signal;HPM_P1;HPM_P2
2024/03/28 00:02:03;;;;;;;3.73;2.47;;;8.10;34.10;;;;;;5081548;28;20188;-40
2024/03/28 00:04:29;;;;;;;2.63;2.40;;;8.00;49.20;;;;;;5079370;28;20435;-39
2024/03/28 00:06:54;;;;;;;2.27;2.07;;;8.00;37.00;;;;;;5078300;28;20572;-40
2024/03/28 00:09:20;;;;;;;2.80;2.50;;;8.00;3.50;;;;;;5081525;28;20173;-41
2024/03/28 00:11:46;;;;;;;2.63;2.43;;;8.00;45.80;;;;;;5081542;28;20193;-41
2024/03/28 00:14:13;;;;;;;2.50;2.30;;;7.90;99.90;;;;;;5082653;28;20435;-41
2024/03/28 00:16:54;;;;;;;2.33;2.13;;;7.90;99.90;;;;;;5079763;28;20552;-41
2024/03/28 00:19:19;;;;;;;2.40;2.20;;;7.80;99.90;;;;;;5079911;28;20455;-42
2024/03/28 00:21:46;;;;;;;3.20;2.20;;;7.80;99.90;;;;;;5080770;28;20183;-40
2024/03/28 00:24:12;;;;;;;3.40;2.80;;;7.80;99.90;;;;;;5079181;28;20185;-42
2024/03/28 00:26:37;;;;;;;2.90;2.20;;;7.70;99.90;;;;;;5080139;28;20458;-41
2024/03/28 00:29:03;;;;;;;2.07;1.83;;;7.70;99.90;;;;;;5079309;28;20191;-40
2024/03/28 00:31:28;;;;;;;2.50;2.30;;;7.70;99.90;;;;;;5080333;28;20711;-40
2024/03/28 00:33:54;;;;;;;2.83;2.53;;;7.60;99.90;;;;;;5080330;28;20187;-40
2024/03/28 00:36:20;;;;;;;2.57;2.37;;;7.60;99.90;;;;;;5062618;28;20223;-41
2024/03/28 00:38:46;;;;;;;3.27;2.20;;;7.60;99.90;;;;;;5080789;28;20219;-40
2024/03/28 00:41:14;;;;;;;1.10;0.70;;;7.60;99.90;;;;;;5079191;28;20445;-42
2024/03/28 00:43:40;;;;;;;1.97;0.90;;;8.10;99.90;;;;;;5057332;28;20460;-41
2024/03/28 00:46:05;;;;;;;1.73;1.00;;;9.10;1.00;;;;;;5059746;28;20443;-43
2024/03/28 00:48:31;;;;;;;1.50;1.30;;;10.00;1.00;;;;;;5059131;28;20420;-42
2024/03/28 00:50:58;;;;;;;2.30;1.80;;;10.80;1.00;;;;;;5060857;28;20195;-41
2024/03/28 00:53:24;;;;;;;3.13;2.20;;;11.20;99.90;;;;;;5044139;28;20178;-42
2024/03/28 00:55:50;;;;;;;2.40;2.20;;;11.10;99.90;;;;;;5060965;28;20467;-42
2024/03/28 00:58:16;;;;;;;3.00;2.40;;;10.80;47.80;;;;;;5060249;28;20416;-41
2024/03/28 01:00:45;;;;;;;2.67;2.47;;;10.40;99.90;;;;;;5060474;28;20420;-41
2024/03/28 01:03:11;;;;;;;4.07;2.70;;;10.00;1.00;;;;;;5059503;28;20439;-41
2024/03/28 01:05:37;;;;;;;2.20;2.00;;;9.60;99.90;;;;;;5060690;28;20464;-40
2024/03/28 01:08:02;;;;;;;2.30;2.10;;;9.30;1.00;;;;;;5058944;28;20463;-40
2024/03/28 01:10:28;;;;;;;2.50;2.30;;;8.90;1.00;;;;;;5058507;28;20237;-41
2024/03/28 01:12:54;;;;;;;2.83;2.33;;;8.70;1.00;;;;;;5058493;28;20188;-41
2024/03/28 01:15:19;;;;;;;2.87;2.67;;;8.50;1.00;;;;;;5057320;28;20600;-42
2024/03/28 01:17:45;;;;;;;2.53;2.33;;;8.30;1.00;;;;;;5059400;28;20173;-42
2024/03/28 01:20:11;;;;;;;3.27;2.60;;;8.20;99.90;;;;;;5057501;28;20173;-40
2024/03/28 01:22:40;;;;;;;2.93;2.73;;;8.00;99.90;;;;;;5059453;28;20478;-42
2024/03/28 01:25:07;;;;;;;3.13;2.50;;;7.90;1.00;;;;;;5058712;28;20552;-40
2024/03/28 01:27:34;;;;;;;4.30;2.90;;;7.80;1.00;;;;;;5059061;28;20404;-41
2024/03/28 01:30:00;;;;;;;2.50;2.30;;;7.70;1.00;;;;;;5059847;28;20428;-42
2024/03/28 01:32:25;;;;;;;2.70;2.50;;;7.60;29.90;;;;;;5059514;28;20736;-40
2024/03/28 01:34:51;;;;;;;3.10;2.63;;;7.50;99.90;;;;;;5058996;28;20178;-39
2024/03/28 01:37:17;;;;;;;2.60;2.30;;;7.50;99.90;;;;;;5058976;28;20178;-42
2024/03/28 01:39:43;;;;;;;3.43;3.13;;;7.40;99.90;;;;;;5059050;28;20423;-42
2024/03/28 01:42:08;;;;;;;3.67;3.23;;;7.40;1.00;;;;;;5059523;28;20174;-41
2024/03/28 01:44:36;;;;;;;4.50;2.87;;;7.30;1.00;;;;;;5074872;28;20224;-40
2024/03/28 01:47:03;;;;;;;3.43;3.13;;;7.30;1.00;;;;;;5079184;28;20273;-39
2024/03/28 01:49:29;;;;;;;4.33;3.93;;;7.20;1.00;;;;;;5079081;28;20422;-41
2024/03/28 01:51:55;;;;;;;5.33;4.30;;;7.20;1.00;;;;;;5079418;28;20511;-41
2024/03/28 01:54:21;;;;;;;5.37;4.80;;;7.10;38.60;;;;;;5061456;28;20199;-41
2024/03/28 01:56:47;;;;;;;4.93;4.10;;;7.10;99.90;;;;;;5078155;28;20499;-41
2024/03/28 01:59:15;;;;;;;4.93;4.27;;;7.10;99.90;;;;;;5078733;28;20427;-41
2024/03/28 02:01:44;;;;;;;5.53;4.07;;;7.00;99.90;;;;;;5078519;28;20469;-40
2024/03/28 02:04:10;;;;;;;3.83;3.40;;;7.00;99.90;;;;;;5078680;28;20806;-41
2024/03/28 02:06:36;;;;;;;3.10;2.80;;;7.00;99.90;;;;;;5079029;28;20496;-40
2024/03/28 02:09:10;;;;;;;3.00;2.70;;;7.00;99.90;;;;;;5078506;28;20212;-41
2024/03/28 02:11:35;;;;;;;4.40;2.80;;;6.90;99.90;;;;;;5079335;28;20423;-40
2024/03/28 02:14:01;;;;;;;3.30;3.00;;;6.90;99.90;;;;;;5079150;28;20822;-40
2024/03/28 02:16:27;;;;;;;3.60;3.30;;;6.90;99.90;;;;;;5078871;28;20211;-39
2024/03/28 02:18:56;;;;;;;2.93;2.50;;;6.80;99.90;;;;;;5078227;28;20590;-40
2024/03/28 02:21:22;;;;;;;3.10;2.80;;;6.80;99.90;;;;;;5078572;28;20837;-40
2024/03/28 02:23:52;;;;;;;3.40;3.10;;;6.80;99.90;;;;;;5078418;28;20415;-40
2024/03/28 02:26:22;;;;;;;3.27;2.97;;;6.80;99.90;;;;;;5061079;28;20442;-41
2024/03/28 02:28:48;;;;;;;3.50;3.10;;;6.70;99.90;;;;;;5077692;28;20404;-41
2024/03/28 02:31:14;;;;;;;3.43;3.13;;;6.70;99.90;;;;;;5078187;28;20502;-41
2024/03/28 02:33:40;;;;;;;2.73;2.43;;;6.70;99.90;;;;;;5076977;28;20455;-40
2024/03/28 02:36:06;;;;;;;3.50;3.20;;;6.70;99.90;;;;;;5077588;28;20209;-40
2024/03/28 02:38:31;;;;;;;3.07;2.87;;;6.60;99.90;;;;;;5077763;28;20177;-41
2024/03/28 02:40:57;;;;;;;3.17;2.87;;;6.60;99.90;;;;;;5078059;28;20447;-41
2024/03/28 02:43:24;;;;;;;2.60;2.40;;;6.60;99.90;;;;;;5056869;28;20230;-40
2024/03/28 02:45:50;;;;;;;2.80;2.60;;;6.50;99.90;;;;;;5056092;28;20474;-40
2024/03/28 02:48:16;;;;;;;2.70;2.50;;;6.50;99.90;;;;;;5053871;28;20436;-41
2024/03/28 02:50:42;;;;;;;2.90;2.67;;;6.50;99.90;;;;;;5056069;28;20455;-43
2024/03/28 02:53:07;;;;;;;3.33;2.73;;;6.50;99.90;;;;;;5056425;28;20467;-40
2024/03/28 02:55:33;;;;;;;2.93;2.63;;;6.50;99.90;;;;;;5058062;28;20296;-40
2024/03/28 02:57:58;;;;;;;3.90;3.30;;;6.50;1.00;;;;;;5057831;28;20250;-40
2024/03/28 03:00:24;;;;;;;2.70;2.50;;;6.40;1.00;;;;;;5057454;28;20268;-41
2024/03/28 03:02:50;;;;;;;3.33;3.03;;;6.40;1.00;;;;;;5055811;28;20238;-40
2024/03/28 03:05:15;;;;;;;3.70;3.40;;;6.40;1.00;;;;;;5057043;28;20220;-41
2024/03/28 03:07:41;;;;;;;3.40;3.10;;;6.40;1.00;;;;;;5057212;28;20589;-40
2024/03/28 03:10:07;;;;;;;3.83;3.00;;;6.40;1.00;;;;;;5057367;28;20189;-43
2024/03/28 03:12:33;;;;;;;3.77;3.47;;;6.40;11.20;;;;;;5055335;28;20459;-40
2024/03/28 03:14:58;;;;;;;4.97;3.37;;;6.30;38.10;;;;;;5056968;28;20189;-40
2024/03/28 03:17:25;;;;;;;3.63;3.27;;;6.30;33.20;;;;;;5056854;28;20443;-41
2024/03/28 03:19:53;;;;;;;3.77;3.00;;;6.30;1.00;;;;;;5057617;28;20614;-42
2024/03/28 03:22:19;;;;;;;4.20;3.77;;;6.30;1.00;;;;;;5055774;28;20854;-41
2024/03/28 03:24:45;;;;;;;4.10;3.40;;;6.30;1.00;;;;;;5057628;28;20412;-40
2024/03/28 03:27:16;;;;;;;3.10;2.80;;;6.30;1.00;;;;;;5058329;28;20455;-40
2024/03/28 03:35:14;;;;;;;3.90;3.20;;;6.20;1.00;;;;;;5057110;28;20431;-40
2024/03/28 03:41:01;;;;;;;2.77;2.57;;;6.10;1.00;;;;;;5070006;28;20223;-40
2024/03/28 03:43:27;;;;;;;3.10;2.80;;;6.10;1.00;;;;;;5097827;28;20743;-40
2024/03/28 03:45:53;;;;;;;3.37;3.07;;;6.10;1.00;;;;;;5097645;28;20202;-43
2024/03/28 03:48:19;;;;;;;3.20;2.90;;;6.00;1.00;;;;;;5080212;28;20425;-42
2024/03/28 03:50:44;;;;;;;2.90;2.70;;;6.00;1.00;;;;;;5097184;28;20191;-44
2024/03/28 03:53:10;;;;;;;3.70;2.70;;;6.00;1.00;;;;;;5079617;28;20264;-40
2024/03/28 03:55:36;;;;;;;3.50;3.20;;;5.90;1.00;;;;;;5097057;28;20247;-40
2024/03/28 03:58:02;;;;;;;3.03;2.73;;;5.90;1.00;;;;;;5097518;28;20426;-41
2024/03/28 04:00:28;;;;;;;3.40;3.10;;;5.90;1.00;;;;;;5097506;28;20172;-41
2024/03/28 04:02:53;;;;;;;3.20;2.63;;;5.80;1.00;;;;;;5097869;28;20422;-40
2024/03/28 04:05:19;;;;;;;3.50;3.20;;;5.80;1.00;;;;;;5080564;28;20215;-40
2024/03/28 04:07:45;;;;;;;3.33;3.07;;;5.80;1.00;;;;;;5097528;28;20492;-40
2024/03/28 04:10:11;;;;;;;4.90;3.20;;;5.80;1.00;;;;;;5098092;28;20181;-42
2024/03/28 04:12:36;;;;;;;3.40;3.10;;;5.70;16.20;;;;;;5080056;28;20755;-40
2024/03/28 04:15:02;;;;;;;3.37;3.07;;;5.70;99.90;;;;;;5097244;28;20414;-41
2024/03/28 04:17:28;;;;;;;3.17;2.97;;;5.70;99.90;;;;;;5098075;28;20269;-42
2024/03/28 04:19:53;;;;;;;6.13;2.90;;;5.70;99.90;;;;;;5098490;28;20190;-39
2024/03/28 04:22:19;;;;;;;3.60;3.30;;;5.70;99.90;;;;;;5098854;28;20188;-42
2024/03/28 04:24:45;;;;;;;3.17;2.93;;;5.60;99.90;;;;;;5099212;28;20169;-41
2024/03/28 04:27:10;;;;;;;4.17;3.70;;;5.60;99.90;;;;;;5078047;28;20176;-41
2024/03/28 04:29:40;;;;;;;3.33;3.03;;;5.60;99.90;;;;;;5095950;28;20219;-40
2024/03/28 04:32:06;;;;;;;4.00;3.23;;;5.60;99.90;;;;;;5096307;28;20184;-41
2024/03/28 04:34:32;;;;;;;3.17;2.97;;;5.60;99.90;;;;;;5100465;28;20418;-41
2024/03/28 04:36:57;;;;;;;2.77;2.57;;;5.60;99.90;;;;;;5081601;28;20469;-41
2024/03/28 04:39:23;;;;;;;2.63;2.43;;;5.50;99.90;;;;;;5100371;28;20165;-40
2024/03/28 04:41:49;;;;;;;3.20;3.00;;;5.50;99.90;;;;;;5100643;28;20226;-41
2024/03/28 04:44:14;;;;;;;2.90;2.70;;;5.50;99.90;;;;;;5100586;28;20259;-41
2024/03/28 04:46:40;;;;;;;4.60;3.13;;;5.50;1.00;;;;;;5101229;28;20513;-41
2024/03/28 04:49:06;;;;;;;2.83;2.63;;;5.50;1.00;;;;;;5082349;28;20426;-40
2024/03/28 04:51:31;;;;;;;3.13;2.83;;;5.50;1.00;;;;;;5100241;28;20183;-41
2024/03/28 04:53:57;;;;;;;3.10;2.80;;;5.50;1.00;;;;;;5101715;28;20245;-42
2024/03/28 04:56:22;;;;;;;3.70;3.03;;;5.50;1.00;;;;;;5100677;28;20258;-41
2024/03/28 04:58:48;;;;;;;3.37;3.07;;;5.50;1.00;;;;;;5100465;28;20180;-40
2024/03/28 05:01:14;;;;;;;4.00;3.40;;;5.50;1.00;;;;;;5099177;28;20446;-42
2024/03/28 05:03:39;;;;;;;3.57;3.27;;;5.50;1.00;;;;;;5081966;28;20165;-41
2024/03/28 05:06:05;;;;;;;3.37;3.07;;;5.50;1.00;;;;;;5099787;28;20186;-41
2024/03/28 05:08:30;;;;;;;3.90;3.13;;;5.50;1.00;;;;;;5100263;28;20176;-42
2024/03/28 05:10:59;;;;;;;3.20;2.90;;;5.50;1.00;;;;;;5100800;28;20218;-42
2024/03/28 05:13:25;;;;;;;3.53;3.23;;;5.50;1.00;;;;;;5101075;28;20173;-42
2024/03/28 05:15:50;;;;;;;3.00;2.77;;;5.50;1.00;;;;;;5083058;28;20533;-41
2024/03/28 05:18:16;;;;;;;2.93;2.73;;;5.50;1.00;;;;;;5100146;28;20275;-41
2024/03/28 05:20:41;;;;;;;3.50;3.13;;;5.50;1.00;;;;;;5100503;28;20173;-40
2024/03/28 05:23:07;;;;;;;3.67;3.30;;;5.50;1.00;;;;;;5100400;28;20172;-41
2024/03/28 05:25:33;;;;;;;3.67;3.20;;;5.40;1.00;;;;;;5099958;28;20180;-41
2024/03/28 05:27:59;;;;;;;3.70;3.40;;;5.50;1.00;;;;;;5099123;28;20173;-43
2024/03/28 05:30:24;;;;;;;3.30;3.00;;;5.50;1.00;;;;;;5098852;28;20422;-39
2024/03/28 05:32:50;;;;;;;4.90;3.60;;;5.50;1.00;;;;;;5098941;28;20176;-42
2024/03/28 05:35:16;;;;;;;3.97;3.57;;;5.50;99.90;;;;;;5097941;28;20168;-41
2024/03/28 05:37:41;;;;;;;3.47;3.17;;;5.50;99.90;;;;;;5098228;28;20215;-44
2024/03/28 05:40:08;;;;;;;3.27;2.97;;;5.50;1.00;;;;;;5097950;28;20276;-41
2024/03/28 05:42:33;;;;;;;3.53;3.23;;;5.50;1.00;;;;;;5099488;28;20558;-40
2024/03/28 05:44:59;;;;;;;3.83;3.27;;;5.60;1.00;;;;;;5098679;28;20585;-41
2024/03/28 05:47:24;;;;;;;4.20;3.53;;;5.70;1.00;;;;;;5081946;28;20212;-42
2024/03/28 05:49:50;;;;;;;4.50;3.53;;;5.70;1.00;;;;;;5100004;28;20176;-41
2024/03/28 05:52:16;;;;;;;3.90;3.60;;;5.80;1.00;;;;;;5099292;28;20187;-41
2024/03/28 05:54:41;;;;;;;4.00;3.60;;;6.00;1.00;;;;;;5099115;28;20267;-41
2024/03/28 05:57:07;;;;;;;3.53;3.23;;;6.10;1.00;;;;;;5098635;28;20208;-42
2024/03/28 05:59:32;;;;;;;4.53;4.10;;;6.20;1.00;;;;;;5096559;28;20173;-42
2024/03/28 06:01:58;;;;;;;3.43;3.23;;;6.40;1.00;;;;;;5097148;28;20268;-42
2024/03/28 06:04:23;;;;;;;4.37;4.00;;;6.50;99.90;;;;;;5097740;28;20168;-42
2024/03/28 06:06:49;;;;;;;3.33;3.00;;;6.60;99.90;;;;;;5096895;28;20272;-41
2024/03/28 06:09:15;;;;;;;3.50;3.20;;;6.70;1.00;;;;;;5097939;28;20173;-43
2024/03/28 06:11:41;;;;;;;4.20;3.40;;;6.90;1.00;;;;;;5080423;28;20509;-40
2024/03/28 06:14:10;;;;;;;3.70;3.40;;;7.10;99.90;;;;;;5079647;28;20262;-43
2024/03/28 06:16:36;;;;;;;4.20;3.80;;;7.30;1.00;;;;;;5079925;28;20200;-45
2024/03/28 06:19:02;;;;;;;4.07;3.67;;;7.40;99.90;;;;;;5096525;28;20422;-48
2024/03/28 06:21:28;;;;;;;4.00;3.60;;;7.50;1.00;;;;;;5097759;28;20895;-42
2024/03/28 06:23:53;;;;;;;3.33;3.03;;;7.50;99.90;;;;;;5079586;28;20541;-44
2024/03/28 06:26:19;;;;;;;4.00;3.70;;;7.60;1.00;;;;;;5097054;28;20188;-40
2024/03/28 06:28:44;;;;;;;3.93;3.63;;;7.60;1.00;;;;;;5063019;28;20177;-41
2024/03/28 06:31:10;;;;;;;3.40;3.10;;;7.60;1.00;;;;;;5097506;28;20498;-42
2024/03/28 06:33:36;;;;;;;3.30;3.00;;;7.60;1.00;;;;;;5097053;28;20172;-43
2024/03/28 06:36:04;;;;;;;3.80;3.50;;;7.60;1.00;;;;;;5079385;28;20219;-41
2024/03/28 06:38:30;;;;;;;3.13;2.83;;;7.60;1.00;;;;;;5081292;28;20168;-42
2024/03/28 06:40:59;;;;;;;4.00;3.70;;;7.60;27.40;;;;;;5079999;28;20478;-48
2024/03/28 06:43:26;;;;;;;5.10;4.60;;;7.70;99.90;;;;;;5080121;28;20179;-42
2024/03/28 06:45:52;;;;;;;5.37;4.80;;;7.70;99.90;;;;;;5080681;28;20480;-42
2024/03/28 06:48:18;;;;;;;4.70;4.03;;;7.70;99.90;;;;;;5098395;28;20430;-41
2024/03/28 06:50:44;;;;;;;5.53;4.60;;;7.60;99.90;;;;;;5097480;28;20414;-41
2024/03/28 06:53:09;;;;;;;4.57;4.17;;;7.60;1.00;;;;;;5098307;28;20207;-41
2024/03/28 06:55:37;;;;;;;3.97;3.57;;;7.60;1.00;;;;;;5097219;28;20273;-41
2024/03/28 06:58:03;;;;;;;3.40;3.07;;;7.60;16.60;;;;;;5096083;28;20181;-41
2024/03/28 07:00:29;;;;;;;3.10;2.80;;;7.70;1.00;;;;;;5095935;28;20471;-41
2024/03/28 07:02:55;;;;;;;4.67;3.73;;;8.10;99.90;;;;;;5096158;28;20429;-41
2024/03/28 07:05:21;;;;;;;2.60;2.40;;;8.80;1.00;;;;;;5096204;28;20196;-41
2024/03/28 07:07:47;;;;;;;4.07;3.13;;;9.30;99.90;;;;;;5095855;28;20436;-41
2024/03/28 07:10:12;;;;;;;3.40;2.67;;;9.90;99.90;;;;;;5096400;28;20176;-41
2024/03/28 07:12:38;;;;;;;3.70;2.20;;;10.40;85.40;;;;;;5079183;28;20169;-41
2024/03/28 07:15:04;;;;;;;4.27;3.63;;;10.70;1.00;;;;;;5080096;28;20192;-42
2024/03/28 07:17:30;;;;;;;2.90;2.60;;;11.20;99.90;;;;;;5097425;28;20177;-42
2024/03/28 07:19:56;;;;;;;3.23;2.80;;;11.50;99.90;;;;;;5095849;28;20482;-41
2024/03/28 07:22:22;;;;;;;3.20;2.87;;;11.80;1.00;;;;;;5097517;28;20172;-42
2024/03/28 07:24:48;;;;;;;2.60;2.40;;;12.10;99.90;;;;;;5097559;28;20894;-40
2024/03/28 07:27:14;;;;;;;2.60;2.33;;;12.30;99.90;;;;;;5097764;28;20419;-41
2024/03/28 07:29:39;;;;;;;2.43;2.23;;;12.50;1.00;;;;;;5097201;28;20187;-42
2024/03/28 07:32:05;;;;;;;2.50;2.30;;;12.80;1.00;;;;;;5095383;28;20212;-42
2024/03/28 07:34:31;;;;;;;2.60;2.17;;;13.00;99.90;;;;;;5095907;28;20620;-41
2024/03/28 07:36:57;;;;;;;2.70;2.50;;;13.20;1.00;;;;;;5095966;28;20564;-43
2024/03/28 07:39:23;;;;;;;2.80;2.17;;;13.20;99.90;;;;;;5096147;28;20168;-41
2024/03/28 07:41:53;;;;;;;2.73;2.10;;;13.30;61.50;;;;;;5095295;28;20473;-41
2024/03/28 07:44:18;;;;;;;2.70;2.07;;;13.30;59.20;;;;;;5076725;28;20539;-43
2024/03/28 07:46:44;;;;;;;2.07;1.60;;;13.50;3.40;;;;;;5094821;28;20468;-41
2024/03/28 07:49:10;;;;;;;2.10;1.80;;;13.60;1.00;;;;;;5095891;28;20184;-40
2024/03/28 07:51:35;;;;;;;2.47;2.10;;;13.80;1.00;;;;;;5095974;28;20497;-40
2024/03/28 07:54:01;;;;;;;2.40;2.20;;;13.90;1.00;;;;;;5094118;28;20428;-40
2024/03/28 07:56:27;;;;;;;2.17;1.97;;;14.00;1.00;;;;;;5093041;28;20200;-43
2024/03/28 07:58:52;;;;;;;2.67;1.60;;;14.00;1.00;;;;;;5094222;28;20276;-41
2024/03/28 08:01:18;;;;;;;2.80;1.90;;;14.10;1.00;;;;;;5076088;28;20188;-41
2024/03/28 08:03:44;;;;;;;1.97;1.67;;;14.20;1.00;;;;;;5093092;28;20180;-42
2024/03/28 08:06:10;;;;;;;2.00;1.50;;;14.30;1.00;;;;;;5061049;28;20168;-44
2024/03/28 08:08:36;;;;;;;2.20;2.00;;;14.40;1.00;;;;;;5099290;28;20200;-42
2024/03/28 08:11:02;;;;;;;1.47;1.37;;;14.50;99.90;;;;;;5080886;28;20539;-41
2024/03/28 08:13:27;;;;;;;3.07;2.67;;;14.60;99.90;;;;;;5097442;28;20172;-42
2024/03/28 08:15:54;;;;;;;2.57;2.30;;;14.40;99.90;;;;;;5096011;28;20200;-40
2024/03/28 08:18:20;;;;;;;2.57;2.37;;;14.00;99.90;;;;;;5096949;28;20173;-43
2024/03/28 08:20:45;;;;;;;2.73;2.53;;;13.40;99.90;;;;;;5097283;28;20441;-41
2024/03/28 08:23:12;;;;;;;3.00;2.70;;;13.00;99.90;;;;;;5097710;28;20504;-41
2024/03/28 08:25:38;;;;;;;2.70;2.50;;;12.60;99.90;;;;;;5096271;28;20283;-40
2024/03/28 08:28:03;;;;;;;3.00;2.70;;;12.20;99.90;;;;;;5096854;28;20521;-40
2024/03/28 08:30:30;;;;;;;2.90;2.53;;;11.90;99.90;;;;;;5097623;28;20187;-41
2024/03/28 08:32:57;;;;;;;3.03;2.73;;;11.70;99.90;;;;;;5099263;28;20603;-41
2024/03/28 08:35:23;;;;;;;3.83;2.63;;;11.50;1.00;;;;;;5099643;28;20430;-41
2024/03/28 08:37:49;;;;;;;2.50;2.23;;;11.40;1.00;;;;;;5099562;28;20432;-40
2024/03/28 08:40:15;;;;;;;3.20;2.70;;;11.30;1.00;;;;;;5099706;28;20212;-43
2024/03/28 08:42:43;;;;;;;2.40;2.20;;;11.20;1.00;;;;;;5099563;28;20173;-40
2024/03/28 08:45:11;;;;;;;3.30;2.80;;;11.20;1.00;;;;;;5100062;28;20478;-40
2024/03/28 08:47:43;;;;;;;2.63;2.20;;;11.00;99.90;;;;;;5100453;28;20414;-40
2024/03/28 08:50:10;;;;;;;2.33;2.13;;;10.90;99.90;;;;;;5099738;28;20676;-42
2024/03/28 08:52:36;;;;;;;3.13;2.40;;;10.80;99.90;;;;;;5082117;28;20418;-40
2024/03/28 08:55:02;;;;;;;2.17;1.83;;;10.80;1.00;;;;;;5098818;28;20517;-41
2024/03/28 08:57:27;;;;;;;1.57;1.47;;;10.80;1.00;;;;;;5100586;28;20565;-41
2024/03/28 08:59:54;;;;;;;2.43;1.73;;;10.80;20.90;;;;;;5064365;28;20501;-45
2024/03/28 09:02:20;;;;;;;2.00;1.77;;;10.80;99.90;;;;;;5082307;28;20720;-41
2024/03/28 09:04:49;;;;;;;2.90;1.83;;;10.90;99.90;;;;;;5080711;28;20441;-41
2024/03/28 09:07:15;;;;;;;1.83;1.33;;;10.80;92.70;;;;;;5097906;28;20573;-41
2024/03/28 09:09:41;;;;;;;1.43;1.30;;;10.70;99.90;;;;;;5079887;28;20475;-41
2024/03/28 09:12:10;;;;;;;2.03;1.00;;;10.70;99.90;;;;;;5098915;28;20268;-40
2024/03/28 09:14:37;;;;;;;3.00;1.47;;;10.60;99.90;;;;;;5100304;28;20791;-41
2024/03/28 09:17:02;;;;;;;2.70;1.40;;;10.50;1.00;;;;;;5099036;28;20922;-40
2024/03/28 09:19:28;;;;;;;2.30;1.20;;;10.40;1.00;;;;;;5096854;28;20426;-41
2024/03/28 09:21:55;;;;;;;2.93;1.40;;;10.40;99.90;;;;;;5099730;28;20208;-41
2024/03/28 09:24:21;;;;;;;1.60;1.40;;;10.40;99.90;;;;;;5116679;28;20413;-42
2024/03/28 09:26:48;;;;;;;2.90;1.43;;;10.30;99.90;;;;;;5119721;28;20436;-43
2024/03/28 09:29:19;;;;;;;2.03;1.33;;;10.30;99.90;;;;;;5120312;28;20176;-42
2024/03/28 09:31:48;;;;;;;1.03;0.90;;;10.20;99.90;;;;;;5121594;28;20498;-41
2024/03/28 09:34:15;;;;;;;3.23;1.60;;;10.20;99.90;;;;;;5122017;28;20480;-42
2024/03/28 09:36:41;;;;;;;2.50;1.30;;;10.30;91.30;;;;;;5122114;28;20886;-43
2024/03/28 09:39:07;;;;;;;2.50;1.00;;;10.30;99.90;;;;;;5103532;28;20487;-41
2024/03/28 09:41:33;;;;;;;1.70;1.13;;;10.30;99.90;;;;;;5121123;28;20523;-42
2024/03/28 09:44:20;;;;;;;1.93;0.90;;;10.40;99.90;;;;;;5121189;28;20527;-42
2024/03/28 09:46:49;;;;;;;1.80;1.20;;;10.50;1.00;;;;;;5102326;28;20912;-41
2024/03/28 09:49:19;;;;;;;1.97;1.20;;;10.60;1.00;;;;;;5120782;28;20418;-41
2024/03/28 09:51:48;;;;;;;1.57;0.93;;;10.60;1.00;;;;;;5103004;28;20417;-41
2024/03/28 09:54:14;;;;;;;0.90;0.60;;;10.70;99.90;;;;;;5119553;28;20501;-41
2024/03/28 09:56:40;;;;;;;1.40;0.70;;;10.80;1.00;;;;;;5101173;28;20473;-41
2024/03/28 09:59:06;;;;;;;1.20;0.70;;;10.80;1.00;;;;;;5119065;28;20424;-44
2024/03/28 10:01:33;;;;;;;1.33;0.97;;;10.80;99.90;;;;;;5119843;28;20172;-41
2024/03/28 10:04:15;;;;;;;2.33;0.70;;;10.90;99.90;;;;;;5119365;28;20183;-43
2024/03/28 10:06:53;;;;;;;1.43;0.93;;;11.10;99.90;;;;;;5118157;28;20424;-42
2024/03/28 10:09:18;;;;;;;1.20;0.80;;;11.30;15.20;;;;;;5119021;28;20413;-42
2024/03/28 10:11:44;;;;;;;1.00;0.60;;;11.40;1.00;;;;;;5118503;28;20437;-41
2024/03/28 10:14:14;;;;;;;1.30;0.67;;;11.70;1.00;;;;;;5119976;28;20826;-41
2024/03/28 10:16:41;;;;;;;1.87;0.70;;;12.00;1.00;;;;;;5101526;28;20277;-42
2024/03/28 10:19:08;;;;;;;1.10;0.70;;;12.40;1.00;;;;;;5101775;28;20432;-41
2024/03/28 10:21:36;;;;;;;1.17;0.63;;;12.80;99.90;;;;;;5102299;28;20418;-40
2024/03/28 10:24:04;;;;;;;1.70;0.50;;;13.50;99.90;;;;;;5118861;28;20730;-42
2024/03/28 10:26:33;;;;;;;1.00;0.50;;;13.80;99.90;;;;;;5117468;28;20432;-41
2024/03/28 10:28:59;;;;;;;1.07;0.70;;;13.80;97.10;;;;;;5106694;28;20478;-42
2024/03/28 10:31:26;;;;;;;1.17;0.73;;;14.00;61.90;;;;;;5079646;28;20547;-42
2024/03/28 10:33:52;;;;;;;1.40;0.80;;;14.20;43.50;;;;;;5097336;28;20211;-41
2024/03/28 10:36:23;;;;;;;1.27;0.60;;;14.50;30.60;;;;;;5076181;28;20528;-42
2024/03/28 10:38:48;;;;;;;1.93;1.20;;;14.90;12.80;;;;;;5076609;28;20199;-40
2024/03/28 10:41:14;;;;;;;1.00;0.40;;;15.10;1.00;;;;;;5096508;28;20474;-42
2024/03/28 10:43:40;;;;;;;0.80;0.40;;;15.30;1.00;;;;;;5094930;28;20182;-46
2024/03/28 10:46:11;;;;;;;1.37;0.60;;;15.30;1.00;;;;;;5079028;28;20715;-41
2024/03/28 10:48:36;;;;;;;1.23;0.70;;;15.40;1.00;;;;;;5097121;28;20312;-43
2024/03/28 10:51:20;;;;;;;1.00;0.40;;;15.60;1.00;;;;;;5095297;28;20540;-40
2024/03/28 10:54:05;;;;;;;1.43;0.50;;;15.70;1.00;;;;;;5093895;28;20486;-40
2024/03/28 10:56:31;;;;;;;2.00;0.60;;;15.80;1.00;;;;;;5076417;28;20509;-40
2024/03/28 10:59:00;;;;;;;1.47;0.53;;;16.20;1.00;;;;;;5061191;28;20418;-41
2024/03/28 11:01:31;;;;;;;0.80;0.30;;;16.60;1.00;;;;;;5096546;28;20433;-41
2024/03/28 11:04:00;;;;;;;1.00;0.40;;;17.20;1.00;;;;;;5078124;28;20479;-41
2024/03/28 11:06:26;;;;;;;1.00;0.60;;;17.60;1.00;;;;;;5097715;28;20439;-40
2024/03/28 11:08:58;;;;;;;1.23;0.50;;;18.20;1.00;;;;;;5078759;28;20720;-42
2024/03/28 11:11:24;;;;;;;1.63;0.47;;;19.30;1.00;;;;;;5096638;28;20437;-41
2024/03/28 11:13:50;;;;;;;1.43;0.60;;;20.60;1.00;;;;;;5076943;28;20434;-42
2024/03/28 11:16:21;;;;;;;0.80;0.40;;;21.40;1.00;;;;;;5094932;28;20462;-45
2024/03/28 11:18:47;;;;;;;0.80;0.40;;;22.20;1.00;;;;;;5095347;28;20922;-44
2024/03/28 11:21:12;;;;;;;1.00;0.40;;;22.60;1.00;;;;;;5095279;28;20427;-43
2024/03/28 11:23:45;;;;;;;1.83;0.50;;;22.60;1.00;;;;;;5096866;28;20441;-42
2024/03/28 11:26:20;;;;;;;1.10;0.50;;;22.50;1.00;;;;;;5076740;28;20184;-41
2024/03/28 11:28:45;;;;;;;1.83;0.50;;;21.70;1.00;;;;;;5093958;28;20453;-41
2024/03/28 11:31:13;;;;;;;0.90;0.40;;;21.20;1.00;;;;;;5096377;28;20890;-41
2024/03/28 11:33:42;;;;;;;2.10;0.40;;;21.20;1.00;;;;;;5076691;28;20679;-42
2024/03/28 11:36:08;;;;;;;1.00;0.40;;;21.20;1.00;;;;;;5059331;28;20471;-40
2024/03/28 11:38:36;;;;;;;0.87;0.40;;;20.70;1.00;;;;;;5076267;28;20430;-40
2024/03/28 11:41:04;;;;;;;1.17;0.43;;;20.70;1.00;;;;;;5079664;28;20467;-43
2024/03/28 11:43:32;;;;;;;1.00;0.50;;;21.00;1.00;;;;;;5061702;28;20422;-41
2024/03/28 11:46:01;;;;;;;0.80;0.40;;;21.30;1.00;;;;;;5068389;28;20439;-44
2024/03/28 11:48:33;;;;;;;0.90;0.40;;;21.80;1.00;;;;;;5092783;28;20446;-43
2024/03/28 11:51:03;;;;;;;2.20;0.50;;;22.00;1.00;;;;;;5077442;28;20743;-41
2024/03/28 11:53:29;;;;;;;0.70;0.30;;;22.10;1.00;;;;;;5094686;28;20422;-42
2024/03/28 11:55:54;;;;;;;0.80;0.30;;;21.80;1.00;;;;;;5093204;28;20500;-43
2024/03/28 11:58:24;;;;;;;1.83;0.57;;;21.70;1.00;;;;;;5076575;28;20406;-43
2024/03/28 12:00:56;;;;;;;0.93;0.40;;;21.30;1.00;;;;;;5095845;28;20681;-42
2024/03/28 12:03:21;;;;;;;2.00;0.70;;;20.90;1.00;;;;;;5094964;28;20422;-42
2024/03/28 12:05:49;;;;;;;1.20;0.40;;;20.70;1.00;;;;;;5094495;28;20428;-44
2024/03/28 12:08:14;;;;;;;1.03;0.50;;;20.50;1.00;;;;;;5076558;28;20268;-42
2024/03/28 12:10:40;;;;;;;1.53;0.70;;;20.20;1.00;;;;;;5076090;28;20537;-42
2024/03/28 12:13:09;;;;;;;1.43;0.60;;;20.30;1.00;;;;;;5095616;28;20176;-43
2024/03/28 12:15:37;;;;;;;1.83;0.70;;;20.50;1.00;;;;;;5095620;28;20212;-41
2024/03/28 12:18:03;;;;;;;1.20;0.50;;;20.80;1.00;;;;;;5093513;28;20809;-42
2024/03/28 12:20:30;;;;;;;1.27;0.60;;;21.20;1.00;;;;;;5093659;28;20491;-42
2024/03/28 12:23:03;;;;;;;1.20;0.50;;;21.50;1.00;;;;;;5082722;28;20510;-42
2024/03/28 12:25:30;;;;;;;1.00;0.50;;;21.40;1.00;;;;;;5074811;28;20418;-42
2024/03/28 12:27:59;;;;;;;1.10;0.50;;;21.30;1.00;;;;;;5073593;28;20423;-42
2024/03/28 12:30:26;;;;;;;3.73;0.57;;;21.60;1.00;;;;;;5072711;28;20448;-46
2024/03/28 12:33:02;;;;;;;1.03;0.40;;;22.00;1.00;;;;;;5072450;28;20423;-41
2024/03/28 12:35:30;;;;;;;0.90;0.40;;;22.60;1.00;;;;;;5074252;28;20427;-43
2024/03/28 12:37:56;;;;;;;0.93;0.43;;;22.70;1.00;;;;;;5074511;28;20419;-42
2024/03/28 12:40:24;;;;;;;0.90;0.40;;;22.90;1.00;;;;;;5073789;28;20587;-42
2024/03/28 12:42:50;;;;;;;1.70;0.50;;;23.40;1.00;;;;;;5075265;28;20430;-41
2024/03/28 12:45:18;;;;;;;5.23;0.70;;;24.70;1.00;;;;;;5074412;28;20431;-44
2024/03/28 12:47:48;;;;;;;0.80;0.40;;;26.10;1.00;;;;;;5074523;28;20537;-42
2024/03/28 12:50:18;;;;;;;1.47;0.53;;;27.90;1.00;;;;;;5074815;28;20451;-45
2024/03/28 12:52:48;;;;;;;1.47;0.50;;;29.50;1.00;;;;;;5075575;28;20403;-46
2024/03/28 12:55:14;;;;;;;1.00;0.40;;;30.80;1.00;;;;;;5075998;28;20385;-42
2024/03/28 12:57:40;;;;;;;1.07;0.40;;;31.90;1.00;;;;;;5057714;28;20671;-46
2024/03/28 13:00:08;;;;;;;1.20;0.70;;;32.30;1.00;;;;;;5076108;28;20430;-42
2024/03/28 13:02:36;;;;;;;1.10;0.60;;;33.10;1.00;;;;;;5077755;28;20260;-44
2024/03/28 13:05:02;;;;;;;0.90;0.30;;;33.50;1.00;;;;;;5077738;28;20496;-45